Time;durP1;ratioP1;P1;durP2;ratioP2;P2;SDS_P1;SDS_P2;PMS_P1;PMS_P2;Temp;Humidity;BMP_temperature;BMP_pressure;BME280_temperature;BME280_humidity;BME280_pressure;Samples;Min_cycle;Max_cycle;Signal;HPM_P1;HPM_P2
2023/05/06 00:00:28;;;;;;;5.87;5.13;;;;;;;;;;5124916;27;20238;-87
2023/05/06 00:02:58;;;;;;;6.47;4.73;;;;;;;;;;5088106;28;20217;-87
2023/05/06 00:05:26;;;;;;;4.90;4.43;;;;;;;;;;5115896;28;20259;-87
2023/05/06 00:07:53;;;;;;;9.20;7.00;;;;;;;;;;5101819;28;20681;-87
2023/05/06 00:10:20;;;;;;;7.37;4.60;;;;;;;;;;5085805;28;20698;-87
2023/05/06 00:12:47;;;;;;;8.33;5.03;;;;;;;;;;5115727;28;20258;-87
2023/05/06 00:15:14;;;;;;;5.77;4.93;;;;;;;;;;5113744;28;20217;-87
2023/05/06 00:17:41;;;;;;;6.37;5.07;;;;;;;;;;5099821;28;20701;-87
2023/05/06 00:20:11;;;;;;;5.80;5.13;;;;;;;;;;5115501;28;20203;-86
2023/05/06 00:22:38;;;;;;;6.17;5.30;;;;;;;;;;5114454;28;20210;-87
2023/05/06 00:25:05;;;;;;;5.57;5.00;;;;;;;;;;5115536;28;20206;-87
2023/05/06 00:27:33;;;;;;;6.03;5.27;;;;;;;;;;5097644;28;20312;-87
2023/05/06 00:30:00;;;;;;;8.10;7.27;;;;;;;;;;5115564;28;20551;-87
2023/05/06 00:32:27;;;;;;;6.10;4.53;;;;;;;;;;5115580;28;20212;-87
2023/05/06 00:34:55;;;;;;;4.37;3.90;;;;;;;;;;5097465;28;20203;-87
2023/05/06 00:37:23;;;;;;;5.53;4.90;;;;;;;;;;5088188;28;20227;-87
2023/05/06 00:39:50;;;;;;;5.83;4.70;;;;;;;;;;5115513;28;20447;-87
2023/05/06 00:42:17;;;;;;;5.73;4.43;;;;;;;;;;5114968;28;20293;-87
2023/05/06 00:44:44;;;;;;;4.97;4.47;;;;;;;;;;5115194;28;20214;-87
2023/05/06 00:47:11;;;;;;;7.07;5.37;;;;;;;;;;5105012;28;20207;-87
2023/05/06 00:49:38;;;;;;;7.57;4.47;;;;;;;;;;5115013;28;20275;-87
2023/05/06 00:52:06;;;;;;;7.70;4.73;;;;;;;;;;5096767;28;20210;-87
2023/05/06 00:54:34;;;;;;;5.90;5.30;;;;;;;;;;5114474;28;20204;-87
2023/05/06 00:57:02;;;;;;;5.60;4.97;;;;;;;;;;5114892;28;20701;-87
2023/05/06 00:59:29;;;;;;;6.33;5.37;;;;;;;;;;5098625;28;20201;-87
2023/05/06 01:01:56;;;;;;;6.63;5.20;;;;;;;;;;5096920;28;20199;-87
2023/05/06 01:04:24;;;;;;;7.17;5.23;;;;;;;;;;5114533;28;20215;-87
2023/05/06 01:06:57;;;;;;;5.20;4.43;;;;;;;;;;5114262;28;20218;-87
2023/05/06 01:09:28;;;;;;;6.20;4.73;;;;;;;;;;5083420;28;20209;-87
2023/05/06 01:12:02;;;;;;;7.10;5.10;;;;;;;;;;5096682;28;20293;-87
2023/05/06 01:14:33;;;;;;;7.93;5.70;;;;;;;;;;5096897;28;20213;-88
2023/05/06 01:17:05;;;;;;;7.50;5.27;;;;;;;;;;5114399;28;20203;-88
2023/05/06 01:19:40;;;;;;;7.10;5.63;;;;;;;;;;5114559;28;20207;-88
2023/05/06 01:22:07;;;;;;;5.80;4.57;;;;;;;;;;5111689;28;20206;-87
2023/05/06 01:24:37;;;;;;;7.43;5.43;;;;;;;;;;5096865;28;20207;-88
2023/05/06 01:27:05;;;;;;;6.47;5.13;;;;;;;;;;5096982;28;20218;-88
2023/05/06 01:29:32;;;;;;;4.93;4.40;;;;;;;;;;5114102;28;20306;-87
2023/05/06 01:32:05;;;;;;;6.77;5.03;;;;;;;;;;5114363;28;20219;-87
2023/05/06 01:34:39;;;;;;;6.17;5.10;;;;;;;;;;5113484;28;20203;-87
2023/05/06 01:37:11;;;;;;;6.13;4.87;;;;;;;;;;5114414;28;20203;-87
2023/05/06 01:39:41;;;;;;;6.37;5.23;;;;;;;;;;5114515;28;20329;-87
2023/05/06 01:42:09;;;;;;;5.17;4.10;;;;;;;;;;5113938;28;20198;-87
2023/05/06 01:44:37;;;;;;;5.17;4.67;;;;;;;;;;5109428;28;20239;-87
2023/05/06 01:47:05;;;;;;;4.87;4.17;;;;;;;;;;5096175;28;20207;-87
2023/05/06 01:49:33;;;;;;;6.63;4.40;;;;;;;;;;5114401;28;20210;-87
2023/05/06 01:52:00;;;;;;;6.30;4.80;;;;;;;;;;5102503;28;20205;-88
2023/05/06 01:54:27;;;;;;;5.23;4.60;;;;;;;;;;5113792;28;20213;-87
2023/05/06 01:56:56;;;;;;;5.70;5.07;;;;;;;;;;5112864;27;20237;-87
2023/05/06 01:59:23;;;;;;;6.20;4.70;;;;;;;;;;5098033;28;20280;-87
2023/05/06 02:01:50;;;;;;;4.80;4.30;;;;;;;;;;5078733;28;20191;-87
2023/05/06 02:04:17;;;;;;;7.17;5.00;;;;;;;;;;5095761;28;20203;-87
2023/05/06 02:06:44;;;;;;;5.10;4.57;;;;;;;;;;5095546;28;20207;-87
2023/05/06 02:09:11;;;;;;;9.97;4.50;;;;;;;;;;5113706;28;20241;-88
2023/05/06 02:11:38;;;;;;;6.60;4.43;;;;;;;;;;5113436;28;20252;-87
2023/05/06 02:14:06;;;;;;;4.87;4.07;;;;;;;;;;5098448;28;20310;-87
2023/05/06 02:16:34;;;;;;;6.40;5.20;;;;;;;;;;5102910;28;20221;-88
2023/05/06 02:19:01;;;;;;;5.43;4.80;;;;;;;;;;5112969;28;20232;-87
2023/05/06 02:21:28;;;;;;;6.23;5.00;;;;;;;;;;5112961;28;20213;-87
2023/05/06 02:23:55;;;;;;;5.63;4.47;;;;;;;;;;5113284;28;20208;-87
2023/05/06 02:26:22;;;;;;;5.20;4.30;;;;;;;;;;5088440;28;20218;-88
2023/05/06 02:28:50;;;;;;;4.90;4.50;;;;;;;;;;5112396;28;20267;-87
2023/05/06 02:31:19;;;;;;;4.83;4.40;;;;;;;;;;5112890;28;20195;-87
2023/05/06 02:33:46;;;;;;;6.50;5.17;;;;;;;;;;5112481;28;20200;-87
2023/05/06 02:36:13;;;;;;;5.30;4.63;;;;;;;;;;5113188;28;20218;-87
2023/05/06 02:38:40;;;;;;;4.67;4.23;;;;;;;;;;5094937;28;20231;-87
2023/05/06 02:41:07;;;;;;;7.40;5.67;;;;;;;;;;5112772;28;20249;-88
2023/05/06 02:43:34;;;;;;;6.50;5.90;;;;;;;;;;5107207;28;20207;-87
2023/05/06 02:46:01;;;;;;;5.20;4.70;;;;;;;;;;5099890;28;20215;-87
2023/05/06 02:48:30;;;;;;;6.27;4.30;;;;;;;;;;5082911;28;20265;-87
2023/05/06 02:50:58;;;;;;;7.77;4.60;;;;;;;;;;5106896;28;20220;-88
2023/05/06 02:53:25;;;;;;;5.60;4.50;;;;;;;;;;5091208;28;20261;-87
2023/05/06 02:55:52;;;;;;;6.27;5.77;;;;;;;;;;5095088;28;20665;-87
2023/05/06 02:58:19;;;;;;;7.40;4.63;;;;;;;;;;5105533;28;20723;-88
2023/05/06 03:00:46;;;;;;;9.30;5.43;;;;;;;;;;5112525;28;20746;-88
2023/05/06 03:03:13;;;;;;;7.37;4.97;;;;;;;;;;5100660;28;20207;-88
2023/05/06 03:05:42;;;;;;;9.53;5.20;;;;;;;;;;5094872;28;20210;-88
2023/05/06 03:08:09;;;;;;;6.00;5.13;;;;;;;;;;5106036;28;20274;-88
2023/05/06 03:10:36;;;;;;;6.63;5.37;;;;;;;;;;5112329;28;20216;-89
2023/05/06 03:13:03;;;;;;;7.03;4.43;;;;;;;;;;5112476;28;20621;-89
2023/05/06 03:15:30;;;;;;;5.13;4.63;;;;;;;;;;5099685;28;20207;-90
2023/05/06 03:17:57;;;;;;;6.73;4.80;;;;;;;;;;5099310;28;20309;-90
2023/05/06 03:20:26;;;;;;;5.93;5.33;;;;;;;;;;5086207;28;20244;-89
2023/05/06 03:22:54;;;;;;;6.13;5.50;;;;;;;;;;5101662;28;20211;-86
2023/05/06 03:25:21;;;;;;;5.73;4.87;;;;;;;;;;5087984;28;20704;-87
2023/05/06 03:27:49;;;;;;;5.50;5.00;;;;;;;;;;5112504;28;20665;-88
2023/05/06 03:30:17;;;;;;;5.90;5.30;;;;;;;;;;5112055;28;20260;-86
2023/05/06 03:32:45;;;;;;;7.50;5.37;;;;;;;;;;5094895;28;20560;-90
2023/05/06 03:35:12;;;;;;;6.73;4.87;;;;;;;;;;5100561;28;20207;-85
2023/05/06 03:37:39;;;;;;;5.53;5.03;;;;;;;;;;5096161;28;20248;-87
2023/05/06 03:40:09;;;;;;;6.13;5.17;;;;;;;;;;5093689;28;20268;-85
2023/05/06 03:42:36;;;;;;;5.43;4.93;;;;;;;;;;5111644;28;20199;-87
2023/05/06 03:45:05;;;;;;;5.30;4.67;;;;;;;;;;5110516;28;20203;-88
2023/05/06 03:47:32;;;;;;;4.73;4.30;;;;;;;;;;5094771;28;20213;-87
2023/05/06 03:50:00;;;;;;;7.53;5.40;;;;;;;;;;5110962;28;20199;-86
2023/05/06 03:52:26;;;;;;;5.83;5.33;;;;;;;;;;5111804;28;20203;-87
2023/05/06 03:54:53;;;;;;;5.43;4.93;;;;;;;;;;5097283;28;20203;-87
2023/05/06 03:57:22;;;;;;;5.37;4.47;;;;;;;;;;5099985;28;20262;-85
2023/05/06 03:59:50;;;;;;;7.37;5.10;;;;;;;;;;5111077;28;20610;-86
2023/05/06 04:02:17;;;;;;;5.33;4.83;;;;;;;;;;5111950;28;20234;-87
2023/05/06 04:04:44;;;;;;;5.07;4.63;;;;;;;;;;5105672;28;20213;-86
2023/05/06 04:07:11;;;;;;;6.40;4.73;;;;;;;;;;5093136;28;20222;-87
2023/05/06 04:09:38;;;;;;;6.70;4.80;;;;;;;;;;5098463;28;20203;-87
2023/05/06 04:12:05;;;;;;;5.33;4.80;;;;;;;;;;5098496;28;20694;-86
2023/05/06 04:14:34;;;;;;;7.70;4.83;;;;;;;;;;5111526;28;20219;-90
2023/05/06 04:17:01;;;;;;;5.17;4.77;;;;;;;;;;5112279;28;20214;-92
2023/05/06 04:19:28;;;;;;;5.50;5.00;;;;;;;;;;5099305;28;20231;-87
2023/05/06 04:21:55;;;;;;;6.10;5.50;;;;;;;;;;5109598;28;20211;-87
2023/05/06 04:24:22;;;;;;;7.53;5.80;;;;;;;;;;5093330;28;20290;-87
2023/05/06 04:26:49;;;;;;;9.80;5.27;;;;;;;;;;5105874;28;20204;-87
2023/05/06 04:29:16;;;;;;;6.53;5.30;;;;;;;;;;5110755;28;20264;-83
2023/05/06 04:31:45;;;;;;;5.30;4.80;;;;;;;;;;5110759;28;20290;-84
2023/05/06 04:34:12;;;;;;;11.30;6.20;;;;;;;;;;5110637;28;20204;-83
2023/05/06 04:36:42;;;;;;;5.37;4.87;;;;;;;;;;5117064;28;20199;-82
2023/05/06 04:39:09;;;;;;;5.87;5.23;;;;;;;;;;5115578;28;20260;-84
2023/05/06 04:41:36;;;;;;;5.53;4.83;;;;;;;;;;5113582;28;20633;-84
2023/05/06 04:44:03;;;;;;;5.47;4.83;;;;;;;;;;5114702;28;20222;-84
2023/05/06 04:46:31;;;;;;;6.67;5.97;;;;;;;;;;5097661;28;20229;-87
2023/05/06 04:48:59;;;;;;;6.37;5.07;;;;;;;;;;5114061;28;20212;-83
2023/05/06 04:51:26;;;;;;;5.33;4.83;;;;;;;;;;5114531;28;20216;-82
2023/05/06 04:53:53;;;;;;;5.50;4.80;;;;;;;;;;5114443;28;20202;-83
2023/05/06 04:56:21;;;;;;;4.97;4.47;;;;;;;;;;5113998;28;20206;-83
2023/05/06 04:58:48;;;;;;;5.23;4.43;;;;;;;;;;5114159;28;20225;-83
2023/05/06 05:01:15;;;;;;;5.00;4.60;;;;;;;;;;5112368;28;20272;-82
2023/05/06 05:03:42;;;;;;;6.93;4.60;;;;;;;;;;5113780;28;20211;-85
2023/05/06 05:06:12;;;;;;;6.97;5.63;;;;;;;;;;5109599;28;20216;-83
2023/05/06 05:08:39;;;;;;;5.53;4.57;;;;;;;;;;5113199;28;20192;-83
2023/05/06 05:11:06;;;;;;;5.73;5.23;;;;;;;;;;5113822;28;20215;-84
2023/05/06 05:13:33;;;;;;;4.97;4.53;;;;;;;;;;5113670;28;20568;-83
2023/05/06 05:16:00;;;;;;;5.43;4.90;;;;;;;;;;5083192;28;20210;-84
2023/05/06 05:18:27;;;;;;;5.10;4.70;;;;;;;;;;5113132;28;20276;-84
2023/05/06 05:20:55;;;;;;;5.07;4.57;;;;;;;;;;5108191;28;20207;-84
2023/05/06 05:23:23;;;;;;;5.97;5.30;;;;;;;;;;5095423;28;20692;-83
2023/05/06 05:25:50;;;;;;;5.13;4.63;;;;;;;;;;5113302;28;20212;-85
2023/05/06 05:28:17;;;;;;;6.33;4.73;;;;;;;;;;5113696;28;20225;-83
2023/05/06 05:30:44;;;;;;;6.30;5.13;;;;;;;;;;5113116;28;20211;-84
2023/05/06 05:33:11;;;;;;;6.47;4.97;;;;;;;;;;5113539;28;20214;-84
2023/05/06 05:35:38;;;;;;;10.73;4.53;;;;;;;;;;5084534;28;20202;-83
2023/05/06 05:38:05;;;;;;;4.87;4.37;;;;;;;;;;5113170;28;20234;-84
2023/05/06 05:40:33;;;;;;;7.57;4.53;;;;;;;;;;5113212;28;20288;-85
2023/05/06 05:43:01;;;;;;;11.13;5.87;;;;;;;;;;5112837;28;20272;-83
2023/05/06 05:45:28;;;;;;;5.60;4.97;;;;;;;;;;5113637;28;20210;-83
2023/05/06 05:47:55;;;;;;;6.43;4.37;;;;;;;;;;5108530;28;20218;-84
2023/05/06 05:50:25;;;;;;;6.07;3.90;;;;;;;;;;5112938;28;20210;-83
2023/05/06 05:52:51;;;;;;;5.43;4.77;;;;;;;;;;5112303;28;20199;-83
2023/05/06 05:55:19;;;;;;;5.00;4.10;;;;;;;;;;5112913;28;20199;-83
2023/05/06 05:57:47;;;;;;;5.53;4.73;;;;;;;;;;5094556;28;20207;-84
2023/05/06 06:00:15;;;;;;;5.20;4.13;;;;;;;;;;5112421;28;20284;-85
2023/05/06 06:02:42;;;;;;;5.07;4.57;;;;;;;;;;5098074;28;20200;-83
2023/05/06 06:05:09;;;;;;;5.87;4.17;;;;;;;;;;5111481;28;20215;-83
2023/05/06 06:07:36;;;;;;;5.47;4.30;;;;;;;;;;5112621;28;20199;-82
2023/05/06 06:10:04;;;;;;;4.73;4.07;;;;;;;;;;5077864;28;20214;-84
2023/05/06 06:12:30;;;;;;;4.90;4.50;;;;;;;;;;5112456;28;20211;-87
2023/05/06 06:14:59;;;;;;;4.57;4.17;;;;;;;;;;5113123;28;20612;-83
2023/05/06 06:17:25;;;;;;;6.33;4.93;;;;;;;;;;5112604;28;20678;-83
2023/05/06 06:19:55;;;;;;;6.37;4.67;;;;;;;;;;5112445;28;20223;-84
2023/05/06 06:22:23;;;;;;;6.03;4.40;;;;;;;;;;5099132;28;20215;-83
2023/05/06 06:24:50;;;;;;;4.87;4.13;;;;;;;;;;5112370;28;20257;-82
2023/05/06 06:27:17;;;;;;;8.57;6.23;;;;;;;;;;5094227;28;20258;-83
2023/05/06 06:29:45;;;;;;;7.20;6.43;;;;;;;;;;5112334;28;20211;-83
2023/05/06 06:32:15;;;;;;;4.93;4.53;;;;;;;;;;5112591;28;20252;-83
2023/05/06 06:34:41;;;;;;;4.30;3.50;;;;;;;;;;5112630;28;20208;-83
2023/05/06 06:37:11;;;;;;;6.73;5.30;;;;;;;;;;5112513;28;20193;-83
2023/05/06 06:39:38;;;;;;;4.70;4.20;;;;;;;;;;5112028;28;20325;-83
2023/05/06 06:42:05;;;;;;;5.53;4.33;;;;;;;;;;5104049;28;20211;-84
2023/05/06 06:44:33;;;;;;;4.60;4.20;;;;;;;;;;5111896;28;20207;-83
2023/05/06 06:47:02;;;;;;;11.87;4.30;;;;;;;;;;5111969;28;20210;-83
2023/05/06 06:49:31;;;;;;;5.93;4.33;;;;;;;;;;5096451;28;20200;-83
2023/05/06 06:51:58;;;;;;;5.87;4.20;;;;;;;;;;5112179;28;20635;-83
2023/05/06 06:54:25;;;;;;;7.10;6.03;;;;;;;;;;5112184;28;20215;-83
2023/05/06 06:56:55;;;;;;;6.50;3.87;;;;;;;;;;5111485;28;20267;-83
2023/05/06 06:59:22;;;;;;;5.17;3.40;;;;;;;;;;5111603;28;20785;-82
2023/05/06 07:01:49;;;;;;;104.33;20.73;;;;;;;;;;5102832;28;20201;-82
2023/05/06 07:04:17;;;;;;;1999.90;622.90;;;;;;;;;;5107903;28;20209;-84
2023/05/06 07:06:45;;;;;;;22.23;10.47;;;;;;;;;;5110351;28;20697;-83
2023/05/06 07:09:12;;;;;;;1999.90;410.10;;;;;;;;;;5111605;28;20206;-81
2023/05/06 07:11:39;;;;;;;12.80;9.40;;;;;;;;;;5093346;28;20213;-81
2023/05/06 07:14:06;;;;;;;30.67;10.90;;;;;;;;;;5111540;28;20293;-80
2023/05/06 07:16:33;;;;;;;10.30;4.30;;;;;;;;;;5111512;28;20666;-84
2023/05/06 07:19:00;;;;;;;4.30;3.90;;;;;;;;;;5111210;28;20207;-83
2023/05/06 07:21:27;;;;;;;7.37;5.40;;;;;;;;;;5073439;28;20634;-83
2023/05/06 07:23:56;;;;;;;29.93;17.50;;;;;;;;;;5107004;28;20206;-82
2023/05/06 07:26:23;;;;;;;9.00;7.10;;;;;;;;;;5111173;28;20206;-84
2023/05/06 07:28:50;;;;;;;5.50;3.60;;;;;;;;;;5111320;28;20197;-84
2023/05/06 07:31:19;;;;;;;8.07;6.07;;;;;;;;;;5093383;28;20203;-83
2023/05/06 07:33:47;;;;;;;10.57;7.53;;;;;;;;;;5111303;28;20236;-83
2023/05/06 07:36:13;;;;;;;5.40;4.77;;;;;;;;;;5111552;28;20620;-83
2023/05/06 07:38:41;;;;;;;4.33;3.47;;;;;;;;;;5111440;28;20291;-83
2023/05/06 07:41:09;;;;;;;3.57;3.23;;;;;;;;;;5111249;28;20249;-84
2023/05/06 07:43:36;;;;;;;11.23;3.90;;;;;;;;;;5111720;28;20214;-83
2023/05/06 07:46:04;;;;;;;5.57;4.13;;;;;;;;;;5093547;28;20633;-84
2023/05/06 07:48:32;;;;;;;3.83;3.27;;;;;;;;;;5102588;28;20218;-83
2023/05/06 07:51:00;;;;;;;4.00;3.47;;;;;;;;;;5092612;28;20214;-82
2023/05/06 07:53:27;;;;;;;4.17;3.27;;;;;;;;;;5111539;28;20224;-81
2023/05/06 07:55:57;;;;;;;4.07;3.67;;;;;;;;;;5109706;28;20682;-82
2023/05/06 07:58:26;;;;;;;4.70;3.60;;;;;;;;;;5110998;28;20580;-83
2023/05/06 08:00:53;;;;;;;9.63;3.73;;;;;;;;;;5106408;28;20284;-83
2023/05/06 08:03:20;;;;;;;7.53;3.43;;;;;;;;;;5099581;28;20208;-82
2023/05/06 08:05:47;;;;;;;10.60;6.60;;;;;;;;;;5095472;28;20191;-82
2023/05/06 08:08:14;;;;;;;16.20;11.23;;;;;;;;;;5110803;28;20685;-82
2023/05/06 08:10:40;;;;;;;6.07;4.30;;;;;;;;;;5111380;28;20199;-80
2023/05/06 08:13:07;;;;;;;4.33;3.53;;;;;;;;;;5110059;28;20203;-82
2023/05/06 08:15:35;;;;;;;4.60;3.77;;;;;;;;;;5112171;28;20583;-85
2023/05/06 08:18:02;;;;;;;5.43;3.37;;;;;;;;;;5105759;28;20261;-83
2023/05/06 08:20:29;;;;;;;3.30;2.90;;;;;;;;;;5098677;27;20219;-82
2023/05/06 08:22:56;;;;;;;10.70;5.30;;;;;;;;;;5114877;28;20750;-81
2023/05/06 08:25:23;;;;;;;4.00;3.63;;;;;;;;;;5114272;28;20272;-82
2023/05/06 08:27:51;;;;;;;3.43;3.13;;;;;;;;;;5114427;28;20204;-82
2023/05/06 08:30:18;;;;;;;3.43;3.13;;;;;;;;;;5114557;28;20236;-81
2023/05/06 08:32:47;;;;;;;4.40;2.83;;;;;;;;;;5104184;28;20260;-82
2023/05/06 08:35:14;;;;;;;4.00;2.57;;;;;;;;;;5109548;28;20204;-83
2023/05/06 08:37:41;;;;;;;5.50;3.40;;;;;;;;;;5120531;27;20194;-82
2023/05/06 08:40:16;;;;;;;3.70;3.37;;;;;;;;;;5121307;27;20219;-82
2023/05/06 08:42:45;;;;;;;3.30;2.90;;;;;;;;;;5109531;28;20260;-82
2023/05/06 08:45:14;;;;;;;3.47;3.03;;;;;;;;;;5113703;27;20211;-83
2023/05/06 08:47:41;;;;;;;6.20;3.37;;;;;;;;;;5096229;28;20203;-84
2023/05/06 08:50:11;;;;;;;4.27;3.63;;;;;;;;;;5105575;28;20199;-82
2023/05/06 08:52:38;;;;;;;6.83;3.23;;;;;;;;;;5113447;28;20203;-83
2023/05/06 08:55:06;;;;;;;5.97;4.77;;;;;;;;;;5108649;28;20703;-84
2023/05/06 08:57:34;;;;;;;5.90;3.33;;;;;;;;;;5111284;27;20207;-82
2023/05/06 09:00:01;;;;;;;6.80;4.73;;;;;;;;;;5112852;27;20639;-82
2023/05/06 09:02:28;;;;;;;6.27;3.80;;;;;;;;;;5113931;28;20593;-81
2023/05/06 09:04:55;;;;;;;6.47;5.63;;;;;;;;;;5111074;28;20200;-82
2023/05/06 09:07:24;;;;;;;7.53;6.33;;;;;;;;;;5114127;28;20260;-82
2023/05/06 09:09:51;;;;;;;9.37;4.80;;;;;;;;;;5113429;27;20203;-81
2023/05/06 09:12:18;;;;;;;4.73;3.87;;;;;;;;;;5114453;28;20208;-90
2023/05/06 09:14:48;;;;;;;8.87;4.43;;;;;;;;;;5111321;28;20204;-90
2023/05/06 09:17:22;;;;;;;4.30;3.90;;;;;;;;;;5113633;28;20719;-90
2023/05/06 09:19:53;;;;;;;4.47;3.23;;;;;;;;;;5091185;28;20333;-89
2023/05/06 09:22:21;;;;;;;6.83;2.93;;;;;;;;;;5109791;28;20579;-92
2023/05/06 09:24:55;;;;;;;2.97;2.77;;;;;;;;;;5104007;28;20237;-87
2023/05/06 09:27:23;;;;;;;3.10;2.90;;;;;;;;;;5106492;27;20228;-85
2023/05/06 09:30:01;;;;;;;4.83;3.07;;;;;;;;;;5109296;28;20249;-90
2023/05/06 09:32:28;;;;;;;5.60;3.87;;;;;;;;;;5114597;28;20267;-90
2023/05/06 09:34:55;;;;;;;4.63;4.10;;;;;;;;;;5121043;28;20564;-88
2023/05/06 09:37:22;;;;;;;4.80;3.47;;;;;;;;;;5115928;27;20740;-89
2023/05/06 09:39:54;;;;;;;6.60;3.30;;;;;;;;;;5103690;28;20242;-88
2023/05/06 09:42:22;;;;;;;3.60;3.30;;;;;;;;;;5117568;28;20567;-89
2023/05/06 09:44:51;;;;;;;6.70;2.93;;;;;;;;;;5114600;28;20203;-89
2023/05/06 09:47:18;;;;;;;4.20;3.70;;;;;;;;;;5114280;28;20199;-89
2023/05/06 09:49:45;;;;;;;5.53;2.83;;;;;;;;;;5114788;28;20268;-88
2023/05/06 09:52:12;;;;;;;5.20;3.00;;;;;;;;;;5114885;28;20754;-89
2023/05/06 09:54:41;;;;;;;4.27;3.27;;;;;;;;;;5114540;28;20230;-89
2023/05/06 09:57:09;;;;;;;19.20;14.07;;;;;;;;;;5114597;28;20203;-90
2023/05/06 09:59:36;;;;;;;4.87;3.73;;;;;;;;;;5105715;27;20208;-89
2023/05/06 10:02:04;;;;;;;2.93;2.60;;;;;;;;;;5113756;28;20199;-89
2023/05/06 10:04:33;;;;;;;3.67;3.27;;;;;;;;;;5114483;28;20204;-89
2023/05/06 10:07:02;;;;;;;3.73;2.90;;;;;;;;;;5114411;28;20210;-91
2023/05/06 10:09:30;;;;;;;3.23;2.90;;;;;;;;;;5106759;28;20208;-90
2023/05/06 10:11:57;;;;;;;4.53;2.80;;;;;;;;;;5109221;28;20646;-90
2023/05/06 10:14:25;;;;;;;3.70;3.40;;;;;;;;;;5114143;28;20214;-89
2023/05/06 10:16:52;;;;;;;5.93;2.90;;;;;;;;;;5114075;28;20203;-89
2023/05/06 10:19:24;;;;;;;3.37;3.07;;;;;;;;;;5114037;28;20646;-89
2023/05/06 10:21:55;;;;;;;5.10;3.03;;;;;;;;;;5113605;28;20233;-88
2023/05/06 10:24:26;;;;;;;3.97;2.73;;;;;;;;;;5113693;28;20662;-89
2023/05/06 10:26:55;;;;;;;3.13;2.70;;;;;;;;;;5114008;28;20211;-88
2023/05/06 10:29:26;;;;;;;3.90;3.50;;;;;;;;;;5113720;28;20750;-89
2023/05/06 10:31:54;;;;;;;3.23;2.97;;;;;;;;;;5114325;28;20214;-89
2023/05/06 10:34:22;;;;;;;3.67;2.80;;;;;;;;;;5113723;28;20565;-89
2023/05/06 10:36:50;;;;;;;2.77;2.47;;;;;;;;;;5113919;28;20252;-90
2023/05/06 10:39:17;;;;;;;3.40;2.93;;;;;;;;;;5112561;28;20242;-90
2023/05/06 10:41:47;;;;;;;3.17;2.47;;;;;;;;;;5113778;28;20669;-90
2023/05/06 10:44:14;;;;;;;3.13;2.53;;;;;;;;;;5113487;28;20220;-89
2023/05/06 10:47:00;;;;;;;3.07;2.83;;;;;;;;;;5113429;28;20698;-89
2023/05/06 10:49:27;;;;;;;2.47;2.27;;;;;;;;;;5113119;28;20207;-89
2023/05/06 10:52:18;;;;;;;3.80;2.87;;;;;;;;;;5113416;28;20215;-90
2023/05/06 10:54:50;;;;;;;5.67;2.80;;;;;;;;;;5106915;27;20757;-88
2023/05/06 10:57:16;;;;;;;4.50;2.80;;;;;;;;;;5113301;28;20207;-89
2023/05/06 10:59:47;;;;;;;5.67;2.77;;;;;;;;;;5099819;28;20192;-91
2023/05/06 11:02:17;;;;;;;6.30;3.17;;;;;;;;;;5113133;28;20223;-89
2023/05/06 11:04:50;;;;;;;6.30;2.13;;;;;;;;;;5113129;28;20623;-89
2023/05/06 11:07:25;;;;;;;4.20;2.90;;;;;;;;;;5113319;28;20238;-90
2023/05/06 11:09:56;;;;;;;2.73;2.53;;;;;;;;;;5113025;28;20669;-89
2023/05/06 11:12:23;;;;;;;4.10;2.80;;;;;;;;;;5113161;28;20199;-89
2023/05/06 11:14:51;;;;;;;2.87;2.67;;;;;;;;;;5113185;28;20268;-90
2023/05/06 11:17:32;;;;;;;3.20;2.90;;;;;;;;;;5112991;28;20264;-89
2023/05/06 11:20:19;;;;;;;8.37;3.53;;;;;;;;;;5112365;28;20601;-87
2023/05/06 11:22:46;;;;;;;3.20;2.67;;;;;;;;;;5112735;28;20215;-89
2023/05/06 11:25:13;;;;;;;3.97;2.70;;;;;;;;;;5094936;28;20218;-89
2023/05/06 11:27:41;;;;;;;4.97;2.60;;;;;;;;;;5112602;28;20643;-89
2023/05/06 11:30:17;;;;;;;4.53;2.80;;;;;;;;;;5097025;28;20227;-88
2023/05/06 11:32:45;;;;;;;3.00;2.70;;;;;;;;;;5113018;28;20630;-88
2023/05/06 11:35:12;;;;;;;4.33;2.97;;;;;;;;;;5111930;28;20211;-88
2023/05/06 11:37:44;;;;;;;4.07;2.90;;;;;;;;;;5111236;28;20211;-88
2023/05/06 11:40:15;;;;;;;6.33;2.80;;;;;;;;;;5112377;28;20237;-86
2023/05/06 11:42:42;;;;;;;2.97;2.63;;;;;;;;;;5080873;28;20212;-88
2023/05/06 11:45:11;;;;;;;3.57;2.90;;;;;;;;;;5106832;28;20223;-88
2023/05/06 11:47:43;;;;;;;2.90;2.70;;;;;;;;;;5094605;28;20249;-88
2023/05/06 11:50:13;;;;;;;2.60;2.40;;;;;;;;;;5095677;28;20235;-87
2023/05/06 11:52:40;;;;;;;3.70;2.77;;;;;;;;;;5116564;28;20210;-87
2023/05/06 11:55:09;;;;;;;4.33;3.13;;;;;;;;;;5109463;28;20240;-88
2023/05/06 11:57:45;;;;;;;4.03;3.57;;;;;;;;;;5098417;28;20243;-90
2023/05/06 12:00:17;;;;;;;3.70;3.40;;;;;;;;;;5115557;28;20231;-88
2023/05/06 12:02:51;;;;;;;5.00;3.47;;;;;;;;;;5115749;28;20200;-87
2023/05/06 12:05:23;;;;;;;5.17;3.60;;;;;;;;;;5105507;28;20211;-86
2023/05/06 12:07:51;;;;;;;3.73;2.67;;;;;;;;;;5111143;28;20214;-88
2023/05/06 12:10:19;;;;;;;6.67;2.87;;;;;;;;;;5114051;28;20203;-87
2023/05/06 12:12:46;;;;;;;3.10;2.80;;;;;;;;;;5107655;27;20207;-87
2023/05/06 12:15:13;;;;;;;6.03;3.03;;;;;;;;;;5096941;28;20232;-87
2023/05/06 12:17:41;;;;;;;6.70;2.83;;;;;;;;;;5115812;28;20219;-87
2023/05/06 12:20:13;;;;;;;3.10;2.83;;;;;;;;;;5115534;28;20285;-87
2023/05/06 12:22:42;;;;;;;3.97;3.60;;;;;;;;;;5107468;28;20234;-88
2023/05/06 12:25:17;;;;;;;3.93;2.80;;;;;;;;;;5099357;28;20204;-88
2023/05/06 12:27:44;;;;;;;5.10;4.63;;;;;;;;;;5096533;28;20203;-88
2023/05/06 12:30:12;;;;;;;4.57;3.00;;;;;;;;;;5112270;28;20218;-88
2023/05/06 12:32:56;;;;;;;4.37;2.70;;;;;;;;;;5109488;28;20196;-88
2023/05/06 12:35:27;;;;;;;6.30;2.93;;;;;;;;;;5099098;28;20234;-88
2023/05/06 12:37:56;;;;;;;3.40;3.10;;;;;;;;;;5096702;28;20284;-87
2023/05/06 12:40:23;;;;;;;3.60;2.90;;;;;;;;;;5097289;28;20207;-87
2023/05/06 12:42:54;;;;;;;4.70;3.10;;;;;;;;;;5106161;28;20250;-84
2023/05/06 12:45:22;;;;;;;4.37;3.27;;;;;;;;;;5114121;28;20728;-84
2023/05/06 12:47:55;;;;;;;9.10;3.17;;;;;;;;;;5114759;28;20219;-84
2023/05/06 12:50:32;;;;;;;4.03;3.30;;;;;;;;;;5114372;27;20264;-85
2023/05/06 12:53:01;;;;;;;4.20;3.80;;;;;;;;;;5114633;28;20214;-85
2023/05/06 12:55:30;;;;;;;3.97;3.53;;;;;;;;;;5114662;28;20377;-87
2023/05/06 12:57:57;;;;;;;3.20;2.63;;;;;;;;;;5098503;28;20207;-88
2023/05/06 13:00:25;;;;;;;3.27;2.97;;;;;;;;;;5114602;28;20578;-87
2023/05/06 13:02:52;;;;;;;2.97;2.70;;;;;;;;;;5113749;28;20279;-87
2023/05/06 13:05:19;;;;;;;6.53;3.50;;;;;;;;;;5106202;28;20207;-87
2023/05/06 13:07:47;;;;;;;3.60;2.90;;;;;;;;;;5114573;28;20203;-88
2023/05/06 13:10:15;;;;;;;3.00;2.80;;;;;;;;;;5114793;28;20211;-88
2023/05/06 13:12:42;;;;;;;4.27;2.40;;;;;;;;;;5100564;28;20586;-88
2023/05/06 13:15:10;;;;;;;4.00;2.90;;;;;;;;;;5113861;28;20211;-87
2023/05/06 13:17:37;;;;;;;3.00;2.80;;;;;;;;;;5096053;28;20208;-88
2023/05/06 13:20:06;;;;;;;3.93;2.80;;;;;;;;;;5096353;28;20207;-87
2023/05/06 13:22:33;;;;;;;3.30;2.70;;;;;;;;;;5114129;28;20231;-87
2023/05/06 13:25:00;;;;;;;2.60;2.40;;;;;;;;;;5101678;28;20207;-87
2023/05/06 13:27:31;;;;;;;3.03;2.70;;;;;;;;;;5096238;28;20239;-88
2023/05/06 13:29:58;;;;;;;4.03;2.73;;;;;;;;;;5114718;28;20203;-88
2023/05/06 13:32:25;;;;;;;4.83;2.67;;;;;;;;;;5107290;28;20196;-86
2023/05/06 13:34:52;;;;;;;4.30;2.70;;;;;;;;;;5113763;28;20200;-87
2023/05/06 13:37:19;;;;;;;3.40;2.50;;;;;;;;;;5107278;28;20223;-87
2023/05/06 13:39:47;;;;;;;2.90;2.60;;;;;;;;;;5095266;28;20296;-86
2023/05/06 13:42:14;;;;;;;3.43;2.43;;;;;;;;;;5113817;28;20231;-86
2023/05/06 13:44:47;;;;;;;3.27;3.00;;;;;;;;;;5115351;28;20276;-86
2023/05/06 13:47:14;;;;;;;2.57;2.30;;;;;;;;;;5118271;28;20702;-85
2023/05/06 13:49:41;;;;;;;3.23;2.73;;;;;;;;;;5082760;28;20187;-85
2023/05/06 13:52:08;;;;;;;5.93;2.73;;;;;;;;;;5094487;28;20199;-85
2023/05/06 13:54:35;;;;;;;2.77;2.53;;;;;;;;;;5108224;28;20358;-86
2023/05/06 13:57:02;;;;;;;2.50;2.30;;;;;;;;;;5114731;28;20212;-84
2023/05/06 13:59:29;;;;;;;2.73;2.30;;;;;;;;;;5114848;28;20736;-85
2023/05/06 14:01:58;;;;;;;4.73;2.90;;;;;;;;;;5114736;28;20263;-86
2023/05/06 14:04:25;;;;;;;3.10;2.83;;;;;;;;;;5113794;28;20682;-85
2023/05/06 14:06:54;;;;;;;2.97;2.47;;;;;;;;;;5095232;28;20211;-86
2023/05/06 14:09:21;;;;;;;3.80;2.90;;;;;;;;;;5112633;28;20681;-86
2023/05/06 14:11:48;;;;;;;6.03;2.80;;;;;;;;;;5112005;28;20260;-86
2023/05/06 14:14:16;;;;;;;2.50;2.30;;;;;;;;;;5101254;28;20203;-87
2023/05/06 14:16:43;;;;;;;4.73;2.60;;;;;;;;;;5096980;28;20203;-86
2023/05/06 14:19:11;;;;;;;2.53;2.33;;;;;;;;;;5112490;28;20199;-86
2023/05/06 14:21:39;;;;;;;3.27;2.97;;;;;;;;;;5094549;28;20716;-86
2023/05/06 14:24:07;;;;;;;2.30;2.20;;;;;;;;;;5112495;28;20207;-87
2023/05/06 14:26:34;;;;;;;3.13;2.77;;;;;;;;;;5102929;28;20211;-86
2023/05/06 14:29:01;;;;;;;3.03;2.40;;;;;;;;;;5077709;28;20203;-86
2023/05/06 14:31:28;;;;;;;4.03;3.10;;;;;;;;;;5094192;28;20192;-86
2023/05/06 14:33:56;;;;;;;4.40;2.57;;;;;;;;;;5093300;28;20279;-85
2023/05/06 14:36:25;;;;;;;4.17;2.60;;;;;;;;;;5112744;28;20203;-86
2023/05/06 14:38:52;;;;;;;3.13;2.60;;;;;;;;;;5112335;28;20280;-87
2023/05/06 14:41:19;;;;;;;2.73;2.53;;;;;;;;;;5112516;28;20203;-86
2023/05/06 14:43:46;;;;;;;3.07;2.63;;;;;;;;;;5112479;28;20207;-87
2023/05/06 14:46:14;;;;;;;4.43;3.00;;;;;;;;;;5112614;28;20200;-87